Time;durP1;ratioP1;P1;durP2;ratioP2;P2;SDS_P1;SDS_P2;PMS_P1;PMS_P2;Temp;Humidity;BMP_temperature;BMP_pressure;BME280_temperature;BME280_humidity;BME280_pressure;Samples;Min_cycle;Max_cycle;Signal;HPM_P1;HPM_P2
2022/12/14 00:00:01;;;;;;;3.63;3.10;;;;;;;;;;5023752;28;20128;-83
2022/12/14 00:02:27;;;;;;;0.20;0.10;;;;;;;;;;5038022;28;20111;-83
2022/12/14 00:04:53;;;;;;;0.20;0.10;;;;;;;;;;5023254;28;20044;-83
2022/12/14 00:07:19;;;;;;;1.40;1.30;;;;;;;;;;5037802;28;20041;-83
2022/12/14 00:09:46;;;;;;;1.65;0.73;;;;;;;;;;5030426;28;20128;-83
2022/12/14 00:12:12;;;;;;;0.20;0.10;;;;;;;;;;5018525;28;20036;-83
2022/12/14 00:14:38;;;;;;;0.20;0.10;;;;;;;;;;5035396;28;20427;-83
2022/12/14 00:17:04;;;;;;;0.20;0.10;;;;;;;;;;5017332;28;20044;-83
2022/12/14 00:19:31;;;;;;;0.20;0.10;;;;;;;;;;5035638;28;20036;-83
2022/12/14 00:21:59;;;;;;;0.20;0.10;;;;;;;;;;5028952;28;20041;-83
2022/12/14 00:24:25;;;;;;;0.20;0.10;;;;;;;;;;5023795;28;20041;-83
2022/12/14 00:26:54;;;;;;;0.20;0.10;;;;;;;;;;5020377;28;20052;-83
2022/12/14 00:29:20;;;;;;;0.20;0.10;;;;;;;;;;5034459;28;20067;-83
2022/12/14 00:31:46;;;;;;;0.20;0.10;;;;;;;;;;5037853;28;20038;-83
2022/12/14 00:34:12;;;;;;;0.20;0.10;;;;;;;;;;5037116;28;20041;-83
2022/12/14 00:36:38;;;;;;;0.20;0.10;;;;;;;;;;5037896;28;20036;-83
2022/12/14 00:39:04;;;;;;;0.20;0.10;;;;;;;;;;5018515;28;20095;-83
2022/12/14 00:41:30;;;;;;;0.20;0.10;;;;;;;;;;5038689;28;20488;-83
2022/12/14 00:43:56;;;;;;;0.20;0.10;;;;;;;;;;5026069;28;20102;-84
2022/12/14 00:46:22;;;;;;;0.20;0.08;;;;;;;;;;5043048;28;20037;-83
2022/12/14 00:48:48;;;;;;;0.20;0.10;;;;;;;;;;5035999;28;20037;-83
2022/12/14 00:51:14;;;;;;;0.20;0.10;;;;;;;;;;5019125;28;20049;-83
2022/12/14 00:53:41;;;;;;;0.20;0.10;;;;;;;;;;5034472;28;21817;-83
2022/12/14 00:56:07;;;;;;;0.20;0.10;;;;;;;;;;5029321;28;20094;-83
2022/12/14 00:58:33;;;;;;;0.20;0.10;;;;;;;;;;5043132;28;20059;-83
2022/12/14 01:01:00;;;;;;;0.20;0.10;;;;;;;;;;5020186;28;20086;-83
2022/12/14 01:03:26;;;;;;;0.20;0.10;;;;;;;;;;5031556;28;20109;-83
2022/12/14 01:05:52;;;;;;;0.20;0.10;;;;;;;;;;5041815;28;20061;-83
2022/12/14 01:08:18;;;;;;;0.20;0.10;;;;;;;;;;5035151;28;20562;-84
2022/12/14 01:10:44;;;;;;;0.20;0.10;;;;;;;;;;5037249;28;20041;-83
2022/12/14 01:13:10;;;;;;;0.20;0.10;;;;;;;;;;5031053;28;20037;-83
2022/12/14 01:15:36;;;;;;;2.28;2.17;;;;;;;;;;5041755;28;20041;-84
2022/12/14 01:18:02;;;;;;;0.20;0.10;;;;;;;;;;5040130;28;20037;-84
2022/12/14 01:20:29;;;;;;;0.20;0.10;;;;;;;;;;5020827;28;20457;-84
2022/12/14 01:22:55;;;;;;;0.32;0.32;;;;;;;;;;5038878;28;20518;-84
2022/12/14 01:25:22;;;;;;;0.20;0.10;;;;;;;;;;5042585;28;20093;-83
2022/12/14 01:27:48;;;;;;;0.20;0.10;;;;;;;;;;5038658;28;20110;-83
2022/12/14 01:30:15;;;;;;;0.22;0.22;;;;;;;;;;5041273;28;20569;-83
2022/12/14 01:32:41;;;;;;;0.20;0.10;;;;;;;;;;5037231;28;20530;-84
2022/12/14 01:35:07;;;;;;;0.20;0.10;;;;;;;;;;5021072;28;20037;-83
2022/12/14 01:37:33;;;;;;;0.20;0.10;;;;;;;;;;5026301;28;20072;-84
2022/12/14 01:39:59;;;;;;;0.55;0.55;;;;;;;;;;5037827;28;20037;-85
2022/12/14 01:42:25;;;;;;;0.20;0.13;;;;;;;;;;5036817;28;20514;-84
2022/12/14 01:44:53;;;;;;;0.20;0.10;;;;;;;;;;5041871;28;20037;-84
2022/12/14 01:47:20;;;;;;;0.20;0.10;;;;;;;;;;5042591;28;20044;-85
2022/12/14 01:49:53;;;;;;;0.20;0.10;;;;;;;;;;5036148;28;20033;-84
2022/12/14 01:52:19;;;;;;;0.20;0.10;;;;;;;;;;5036804;28;20323;-84
2022/12/14 01:54:54;;;;;;;0.20;0.10;;;;;;;;;;5022529;28;20037;-84
2022/12/14 01:57:22;;;;;;;0.20;0.10;;;;;;;;;;5043410;28;20028;-84
2022/12/14 01:59:48;;;;;;;0.20;0.10;;;;;;;;;;5026280;28;20040;-84
2022/12/14 02:02:16;;;;;;;0.47;0.47;;;;;;;;;;5030997;28;20632;-84
2022/12/14 02:04:43;;;;;;;0.20;0.10;;;;;;;;;;5039904;28;20041;-84
2022/12/14 02:07:09;;;;;;;0.20;0.10;;;;;;;;;;5035714;28;20069;-84
2022/12/14 02:09:38;;;;;;;0.20;0.10;;;;;;;;;;5038738;28;21223;-84
2022/12/14 02:12:05;;;;;;;0.20;0.10;;;;;;;;;;5048021;28;20036;-84
2022/12/14 02:14:33;;;;;;;0.20;0.10;;;;;;;;;;5025264;28;20042;-84
2022/12/14 02:16:59;;;;;;;0.20;0.10;;;;;;;;;;5028819;28;20043;-84
2022/12/14 02:19:25;;;;;;;0.20;0.20;;;;;;;;;;5038217;28;20566;-84
2022/12/14 02:21:54;;;;;;;0.20;0.20;;;;;;;;;;5032841;28;20038;-84
2022/12/14 02:24:33;;;;;;;0.20;0.10;;;;;;;;;;5033332;28;20492;-84
2022/12/14 02:27:18;;;;;;;0.20;0.10;;;;;;;;;;5032316;28;20411;-84
2022/12/14 02:29:56;;;;;;;0.20;0.10;;;;;;;;;;5014303;28;20033;-84
2022/12/14 02:32:30;;;;;;;0.38;0.38;;;;;;;;;;5032843;28;20128;-84
2022/12/14 02:34:59;;;;;;;0.20;0.10;;;;;;;;;;5035155;28;20064;-83
2022/12/14 02:37:28;;;;;;;0.20;0.10;;;;;;;;;;5013787;28;20041;-84
2022/12/14 02:40:06;;;;;;;0.20;0.10;;;;;;;;;;5031684;28;20683;-84
2022/12/14 02:42:40;;;;;;;0.20;0.10;;;;;;;;;;5032076;28;20131;-83
2022/12/14 02:45:11;;;;;;;0.20;0.10;;;;;;;;;;5030374;28;20411;-83
2022/12/14 02:47:37;;;;;;;0.30;0.25;;;;;;;;;;5009809;28;20048;-84
2022/12/14 02:50:21;;;;;;;0.20;0.10;;;;;;;;;;5015140;28;20053;-84
2022/12/14 02:52:56;;;;;;;0.28;0.28;;;;;;;;;;5035884;28;20504;-84
2022/12/14 02:55:30;;;;;;;0.20;0.10;;;;;;;;;;5035068;28;20040;-84
2022/12/14 02:58:14;;;;;;;0.20;0.10;;;;;;;;;;5014987;28;20454;-85
2022/12/14 03:00:40;;;;;;;0.50;0.50;;;;;;;;;;5032629;28;20048;-84
2022/12/14 03:03:06;;;;;;;0.20;0.10;;;;;;;;;;5014653;28;20087;-84
2022/12/14 03:05:33;;;;;;;0.57;0.57;;;;;;;;;;5022384;28;20127;-84
2022/12/14 03:08:02;;;;;;;1.88;1.77;;;;;;;;;;5032932;28;20048;-84
2022/12/14 03:10:31;;;;;;;0.20;0.13;;;;;;;;;;5031334;28;20087;-84
2022/12/14 03:13:01;;;;;;;0.43;0.43;;;;;;;;;;5028451;28;20041;-84
2022/12/14 03:15:27;;;;;;;0.20;0.10;;;;;;;;;;5030151;28;20039;-84
2022/12/14 03:17:56;;;;;;;0.20;0.10;;;;;;;;;;5033926;28;20032;-83
2022/12/14 03:20:24;;;;;;;0.38;0.38;;;;;;;;;;5014537;28;20491;-84
2022/12/14 03:22:54;;;;;;;0.20;0.10;;;;;;;;;;5018474;28;20128;-84
2022/12/14 03:25:24;;;;;;;0.20;0.08;;;;;;;;;;5037071;28;20037;-82
2022/12/14 03:27:53;;;;;;;0.20;0.10;;;;;;;;;;5035980;28;20033;-82
2022/12/14 03:30:19;;;;;;;0.20;0.13;;;;;;;;;;5015159;28;20041;-82
2022/12/14 03:32:48;;;;;;;0.20;0.10;;;;;;;;;;5019469;28;20120;-82
2022/12/14 03:35:20;;;;;;;1.25;1.17;;;;;;;;;;5018353;28;20049;-82
2022/12/14 03:37:46;;;;;;;;;;;;;;;;;;5030617;28;20095;-82
2022/12/14 03:40:13;;;;;;;0.20;0.10;;;;;;;;;;5014651;28;20317;-82
2022/12/14 03:42:44;;;;;;;0.20;0.08;;;;;;;;;;5030770;28;20042;-82
2022/12/14 03:45:29;;;;;;;0.50;0.50;;;;;;;;;;5030899;28;20128;-83
2022/12/14 03:48:01;;;;;;;0.20;0.10;;;;;;;;;;5029696;28;20084;-83
2022/12/14 03:50:48;;;;;;;0.20;0.10;;;;;;;;;;5037106;28;20107;-82
2022/12/14 03:53:14;;;;;;;1.40;1.30;;;;;;;;;;5032255;28;20046;-82
2022/12/14 03:55:40;;;;;;;0.30;0.30;;;;;;;;;;5035806;28;20040;-83
2022/12/14 03:58:16;;;;;;;5.22;1.17;;;;;;;;;;5036300;28;20511;-82
2022/12/14 04:00:54;;;;;;;1.00;0.85;;;;;;;;;;5040386;28;20044;-83
2022/12/14 04:03:20;;;;;;;0.20;0.10;;;;;;;;;;5019749;28;20052;-82
2022/12/14 04:05:48;;;;;;;1.48;1.38;;;;;;;;;;5052826;28;20033;-82
2022/12/14 04:08:21;;;;;;;0.20;0.10;;;;;;;;;;5036758;28;20033;-82
2022/12/14 04:19:22;;;;;;;0.50;0.50;;;;;;;;;;5034464;28;20037;-83
2022/12/14 04:21:56;;;;;;;0.20;0.10;;;;;;;;;;5033968;28;20573;-82
2022/12/14 04:27:33;;;;;;;0.35;0.30;;;;;;;;;;5040053;28;20397;-83
2022/12/14 04:30:00;;;;;;;0.20;0.10;;;;;;;;;;5024742;28;20048;-82
2022/12/14 04:32:29;;;;;;;0.20;0.10;;;;;;;;;;5036537;28;20040;-82
2022/12/14 04:34:58;;;;;;;0.20;0.10;;;;;;;;;;5040053;28;20044;-82
2022/12/14 04:37:26;;;;;;;0.20;0.10;;;;;;;;;;5018808;28;20120;-83
2022/12/14 04:39:57;;;;;;;0.65;0.65;;;;;;;;;;5036902;28;20058;-82
2022/12/14 04:42:27;;;;;;;0.30;0.30;;;;;;;;;;5037149;28;20112;-82
2022/12/14 04:44:54;;;;;;;0.20;0.10;;;;;;;;;;5041430;28;20041;-82
2022/12/14 04:47:21;;;;;;;0.20;0.10;;;;;;;;;;5030155;28;20052;-82
2022/12/14 04:49:53;;;;;;;0.20;0.10;;;;;;;;;;5050885;28;20044;-82
2022/12/14 04:52:35;;;;;;;0.20;0.10;;;;;;;;;;5053035;28;20037;-83
2022/12/14 04:55:04;;;;;;;0.20;0.10;;;;;;;;;;5057218;28;20045;-83
2022/12/14 04:57:46;;;;;;;0.20;0.10;;;;;;;;;;5056514;28;20036;-83
2022/12/14 05:00:12;;;;;;;0.20;0.10;;;;;;;;;;5039516;28;20131;-82
2022/12/14 05:02:57;;;;;;;0.20;0.10;;;;;;;;;;5035360;28;20033;-83
2022/12/14 05:05:23;;;;;;;0.20;0.10;;;;;;;;;;5016517;28;20445;-83
2022/12/14 05:07:59;;;;;;;0.20;0.10;;;;;;;;;;5020126;28;20041;-83
2022/12/14 05:10:41;;;;;;;0.20;0.10;;;;;;;;;;5023013;28;20053;-83
2022/12/14 05:13:21;;;;;;;0.20;0.10;;;;;;;;;;5029563;28;20488;-83
2022/12/14 05:15:57;;;;;;;0.20;0.10;;;;;;;;;;5036353;28;20452;-83
2022/12/14 05:18:23;;;;;;;2.85;2.25;;;;;;;;;;5035355;28;20129;-83
2022/12/14 05:20:49;;;;;;;0.20;0.10;;;;;;;;;;5022829;28;20140;-83
2022/12/14 05:23:16;;;;;;;0.20;0.10;;;;;;;;;;5039314;28;20051;-83
2022/12/14 05:25:42;;;;;;;0.90;0.55;;;;;;;;;;5020059;28;20064;-83
2022/12/14 05:28:12;;;;;;;0.20;0.10;;;;;;;;;;5036655;28;20053;-83
2022/12/14 05:30:38;;;;;;;0.20;0.10;;;;;;;;;;5039468;28;20571;-83
2022/12/14 05:33:04;;;;;;;0.20;0.10;;;;;;;;;;5021631;28;20041;-83
2022/12/14 05:35:30;;;;;;;0.20;0.10;;;;;;;;;;5036890;28;20049;-83
2022/12/14 05:37:56;;;;;;;4.97;1.42;;;;;;;;;;5032403;28;20044;-83
2022/12/14 05:40:22;;;;;;;0.20;0.10;;;;;;;;;;5031668;28;20127;-82
2022/12/14 05:42:48;;;;;;;1.48;0.82;;;;;;;;;;5011423;28;20080;-82
2022/12/14 05:45:14;;;;;;;0.20;0.10;;;;;;;;;;5033615;28;20037;-83
2022/12/14 05:47:40;;;;;;;0.20;0.20;;;;;;;;;;5034606;28;20131;-83
2022/12/14 05:50:10;;;;;;;0.20;0.10;;;;;;;;;;5031839;28;20041;-83
2022/12/14 05:52:39;;;;;;;;;;;;;;;;;;5033287;28;21012;-83
2022/12/14 05:55:05;;;;;;;0.20;0.10;;;;;;;;;;5016763;28;19929;-82
2022/12/14 05:57:31;;;;;;;0.20;0.10;;;;;;;;;;5019294;28;20048;-83
2022/12/14 05:59:57;;;;;;;0.20;0.20;;;;;;;;;;5036229;28;20253;-82
2022/12/14 06:02:23;;;;;;;0.20;0.10;;;;;;;;;;5037390;28;20043;-83
2022/12/14 06:04:49;;;;;;;0.22;0.15;;;;;;;;;;5027129;28;20037;-83
2022/12/14 06:07:15;;;;;;;0.20;0.10;;;;;;;;;;5049734;28;20041;-83
2022/12/14 06:09:41;;;;;;;0.20;0.10;;;;;;;;;;5040472;28;20041;-83
2022/12/14 06:12:07;;;;;;;0.20;0.20;;;;;;;;;;5046012;28;20043;-82
2022/12/14 06:14:33;;;;;;;0.20;0.10;;;;;;;;;;5043073;28;20101;-83
2022/12/14 06:16:59;;;;;;;0.20;0.10;;;;;;;;;;5045085;28;20029;-83
2022/12/14 06:19:25;;;;;;;0.20;0.10;;;;;;;;;;5051062;28;20065;-83
2022/12/14 06:21:51;;;;;;;0.50;0.50;;;;;;;;;;5057480;28;20048;-83
2022/12/14 06:24:17;;;;;;;1.40;1.30;;;;;;;;;;5063266;28;20407;-83
2022/12/14 06:26:43;;;;;;;0.20;0.10;;;;;;;;;;5039177;28;20037;-83
2022/12/14 06:29:14;;;;;;;0.20;0.10;;;;;;;;;;5043276;28;20045;-83
2022/12/14 06:31:40;;;;;;;0.20;0.10;;;;;;;;;;5039446;28;20045;-83
2022/12/14 06:34:06;;;;;;;0.20;0.15;;;;;;;;;;5038361;28;20399;-83
2022/12/14 06:36:33;;;;;;;0.20;0.10;;;;;;;;;;5035742;28;20090;-83
2022/12/14 06:39:01;;;;;;;0.20;0.20;;;;;;;;;;5013312;28;20373;-84
2022/12/14 06:41:27;;;;;;;0.20;0.10;;;;;;;;;;5037738;28;20042;-84
2022/12/14 06:43:53;;;;;;;0.20;0.10;;;;;;;;;;5037823;28;20116;-83
2022/12/14 06:46:20;;;;;;;0.20;0.10;;;;;;;;;;5035499;28;20041;-83
2022/12/14 06:48:50;;;;;;;0.20;0.10;;;;;;;;;;5034174;28;20044;-83
2022/12/14 06:51:16;;;;;;;0.20;0.10;;;;;;;;;;5043044;28;20460;-83
2022/12/14 06:53:42;;;;;;;0.20;0.10;;;;;;;;;;5038586;28;20478;-83
2022/12/14 06:56:09;;;;;;;0.20;0.10;;;;;;;;;;5033701;28;20044;-83
2022/12/14 06:58:35;;;;;;;0.20;0.10;;;;;;;;;;5027066;28;20565;-83
2022/12/14 07:01:02;;;;;;;0.20;0.10;;;;;;;;;;5041868;28;20033;-83
2022/12/14 07:03:28;;;;;;;0.20;0.10;;;;;;;;;;5036327;28;21334;-83
2022/12/14 07:05:58;;;;;;;0.20;0.10;;;;;;;;;;5024831;28;20037;-83
2022/12/14 07:08:24;;;;;;;0.90;0.90;;;;;;;;;;5032930;28;20045;-83
2022/12/14 07:10:51;;;;;;;0.20;0.10;;;;;;;;;;5034171;28;20095;-83
2022/12/14 07:13:17;;;;;;;0.20;0.10;;;;;;;;;;5036448;28;20128;-83
2022/12/14 07:15:43;;;;;;;0.20;0.10;;;;;;;;;;5012949;28;20116;-83
2022/12/14 07:18:09;;;;;;;0.30;0.30;;;;;;;;;;5031746;28;20124;-83
2022/12/14 07:20:35;;;;;;;0.20;0.10;;;;;;;;;;5038896;28;20415;-83
2022/12/14 07:23:01;;;;;;;0.20;0.20;;;;;;;;;;5016812;28;20037;-83
2022/12/14 07:25:27;;;;;;;0.20;0.10;;;;;;;;;;5019994;28;20045;-83
2022/12/14 07:27:53;;;;;;;0.20;0.10;;;;;;;;;;5038761;28;20044;-83
2022/12/14 07:30:22;;;;;;;0.20;0.10;;;;;;;;;;5018727;28;20515;-83
2022/12/14 07:32:48;;;;;;;0.20;0.15;;;;;;;;;;5027289;28;20403;-83
2022/12/14 07:35:14;;;;;;;0.20;0.10;;;;;;;;;;5034880;28;20037;-83
2022/12/14 07:37:40;;;;;;;0.20;0.10;;;;;;;;;;5019227;28;20034;-82
2022/12/14 07:40:07;;;;;;;0.20;0.10;;;;;;;;;;5034448;28;20094;-83
2022/12/14 07:42:32;;;;;;;3.05;2.85;;;;;;;;;;5017077;28;20041;-83
2022/12/14 07:45:00;;;;;;;0.20;0.10;;;;;;;;;;5032282;28;20215;-83
2022/12/14 07:47:28;;;;;;;0.20;0.10;;;;;;;;;;5030933;28;20554;-83
2022/12/14 07:49:54;;;;;;;1.33;1.23;;;;;;;;;;5034857;28;20045;-82
2022/12/14 07:52:20;;;;;;;1.65;1.27;;;;;;;;;;5033759;28;20048;-83
2022/12/14 07:54:47;;;;;;;0.20;0.10;;;;;;;;;;5031915;28;20049;-82
2022/12/14 07:57:13;;;;;;;0.20;0.10;;;;;;;;;;5024001;28;20419;-82
2022/12/14 07:59:39;;;;;;;0.20;0.10;;;;;;;;;;5034978;28;20088;-82
2022/12/14 08:02:05;;;;;;;0.20;0.10;;;;;;;;;;5033115;28;20040;-83
2022/12/14 08:04:33;;;;;;;0.20;0.10;;;;;;;;;;5040020;28;20045;-83
2022/12/14 08:06:59;;;;;;;0.20;0.10;;;;;;;;;;5040650;28;20391;-83
2022/12/14 08:09:26;;;;;;;1.48;1.27;;;;;;;;;;5041345;28;20530;-83
2022/12/14 08:11:52;;;;;;;0.20;0.10;;;;;;;;;;5042803;28;20037;-83
2022/12/14 08:14:18;;;;;;;0.20;0.10;;;;;;;;;;5040312;28;20420;-83
2022/12/14 08:16:45;;;;;;;0.20;0.10;;;;;;;;;;5038968;28;20049;-83
2022/12/14 08:19:11;;;;;;;0.20;0.10;;;;;;;;;;5020940;28;20040;-83
2022/12/14 08:21:38;;;;;;;0.20;0.10;;;;;;;;;;5040261;28;20079;-83
2022/12/14 08:24:04;;;;;;;0.20;0.10;;;;;;;;;;5039355;28;20449;-83
2022/12/14 08:26:30;;;;;;;0.65;0.65;;;;;;;;;;5033812;28;20668;-83
2022/12/14 08:28:56;;;;;;;0.20;0.10;;;;;;;;;;5039756;28;20049;-83
2022/12/14 08:31:24;;;;;;;0.20;0.10;;;;;;;;;;5017884;28;20538;-83
2022/12/14 08:33:50;;;;;;;0.20;0.10;;;;;;;;;;5040581;28;20041;-83
2022/12/14 08:36:18;;;;;;;0.20;0.10;;;;;;;;;;5038811;28;20044;-83
2022/12/14 08:38:44;;;;;;;0.20;0.10;;;;;;;;;;5033024;28;20040;-83
2022/12/14 08:41:11;;;;;;;2.85;1.52;;;;;;;;;;5039366;28;20038;-83
2022/12/14 08:43:37;;;;;;;0.20;0.15;;;;;;;;;;5030635;28;20033;-82
2022/12/14 08:46:04;;;;;;;1.20;1.20;;;;;;;;;;5037653;28;20403;-83
2022/12/14 08:48:30;;;;;;;0.20;0.10;;;;;;;;;;5043453;28;20503;-83
2022/12/14 08:51:07;;;;;;;0.20;0.10;;;;;;;;;;5034590;28;20048;-83
2022/12/14 08:53:33;;;;;;;0.20;0.10;;;;;;;;;;5023424;28;20106;-83
2022/12/14 08:56:03;;;;;;;0.20;0.10;;;;;;;;;;5023487;28;20352;-83
2022/12/14 08:58:30;;;;;;;0.20;0.10;;;;;;;;;;5038770;28;20040;-83
2022/12/14 09:01:05;;;;;;;0.20;0.10;;;;;;;;;;5039193;28;20046;-83
2022/12/14 09:03:32;;;;;;;0.20;0.10;;;;;;;;;;5039760;28;20108;-82
2022/12/14 09:06:02;;;;;;;0.20;0.10;;;;;;;;;;5022489;28;20587;-82
2022/12/14 09:08:28;;;;;;;0.20;0.10;;;;;;;;;;5036626;28;20132;-83
2022/12/14 09:10:54;;;;;;;0.20;0.10;;;;;;;;;;5035342;28;20036;-82
2022/12/14 09:13:20;;;;;;;0.30;0.30;;;;;;;;;;5038046;28;20595;-82
2022/12/14 09:15:46;;;;;;;0.20;0.10;;;;;;;;;;5046707;28;20301;-83
2022/12/14 09:18:12;;;;;;;0.20;0.10;;;;;;;;;;5044701;28;20033;-83
2022/12/14 09:20:38;;;;;;;2.15;1.95;;;;;;;;;;5044501;28;20112;-83
2022/12/14 09:23:04;;;;;;;0.47;0.47;;;;;;;;;;5023192;28;20040;-82
2022/12/14 09:25:30;;;;;;;0.20;0.10;;;;;;;;;;5042253;28;20431;-83
2022/12/14 09:27:56;;;;;;;0.20;0.10;;;;;;;;;;5036568;28;20488;-83
2022/12/14 09:30:24;;;;;;;0.20;0.10;;;;;;;;;;5038884;28;20296;-83
2022/12/14 09:32:50;;;;;;;0.20;0.10;;;;;;;;;;5041060;28;20033;-82
2022/12/14 09:35:16;;;;;;;0.20;0.10;;;;;;;;;;5020709;28;20040;-82
2022/12/14 09:37:42;;;;;;;0.20;0.10;;;;;;;;;;5025923;28;20037;-82
2022/12/14 09:40:10;;;;;;;0.20;0.10;;;;;;;;;;5039675;28;20033;-82
2022/12/14 09:42:50;;;;;;;0.20;0.10;;;;;;;;;;5043884;28;20037;-82
2022/12/14 09:45:28;;;;;;;0.20;0.10;;;;;;;;;;5034958;28;20060;-82
2022/12/14 09:47:57;;;;;;;0.20;0.10;;;;;;;;;;5022813;28;20581;-82
2022/12/14 09:50:24;;;;;;;0.20;0.10;;;;;;;;;;5018932;28;20041;-82
2022/12/14 09:52:58;;;;;;;0.20;0.10;;;;;;;;;;5037675;28;20525;-83
2022/12/14 09:55:45;;;;;;;0.20;0.10;;;;;;;;;;5039814;28;20049;-83
2022/12/14 09:58:27;;;;;;;8.98;5.18;;;;;;;;;;5023396;28;20037;-83
2022/12/14 10:01:02;;;;;;;0.20;0.10;;;;;;;;;;5041387;28;20125;-82
2022/12/14 10:03:34;;;;;;;0.65;0.65;;;;;;;;;;5042842;28;20537;-83
2022/12/14 10:06:18;;;;;;;0.20;0.10;;;;;;;;;;5023840;28;20040;-82
2022/12/14 10:09:08;;;;;;;0.20;0.10;;;;;;;;;;5039016;28;20052;-83
2022/12/14 10:11:37;;;;;;;0.20;0.10;;;;;;;;;;5029629;28;20050;-83
2022/12/14 10:14:22;;;;;;;0.20;0.10;;;;;;;;;;5025533;28;20117;-83
2022/12/14 10:17:01;;;;;;;0.20;0.10;;;;;;;;;;5057579;28;20057;-83
2022/12/14 10:19:33;;;;;;;0.20;0.10;;;;;;;;;;5039747;28;20071;-83
2022/12/14 10:22:19;;;;;;;0.20;0.10;;;;;;;;;;5043969;28;20499;-82
2022/12/14 10:24:47;;;;;;;0.30;0.30;;;;;;;;;;5040449;28;20038;-83
2022/12/14 10:27:24;;;;;;;0.20;0.10;;;;;;;;;;5047846;28;20040;-83
2022/12/14 10:29:55;;;;;;;0.20;0.10;;;;;;;;;;5034631;28;20041;-83
2022/12/14 10:32:44;;;;;;;0.20;0.10;;;;;;;;;;5034683;28;20037;-83
2022/12/14 10:35:13;;;;;;;0.20;0.10;;;;;;;;;;5027979;28;20051;-81
2022/12/14 10:37:41;;;;;;;0.20;0.10;;;;;;;;;;5037444;28;20047;-82
2022/12/14 10:40:17;;;;;;;0.20;0.10;;;;;;;;;;5031369;28;20055;-83
2022/12/14 10:42:58;;;;;;;0.20;0.10;;;;;;;;;;5037735;28;20678;-83
2022/12/14 10:45:28;;;;;;;0.20;0.10;;;;;;;;;;5025732;28;20063;-82
2022/12/14 10:48:09;;;;;;;0.20;0.10;;;;;;;;;;5037117;28;20061;-83
2022/12/14 10:50:55;;;;;;;0.20;0.10;;;;;;;;;;5017786;28;20153;-83
2022/12/14 10:53:26;;;;;;;0.20;0.10;;;;;;;;;;5036595;28;20366;-82
2022/12/14 10:55:53;;;;;;;0.20;0.10;;;;;;;;;;5024556;28;20032;-81
2022/12/14 10:58:19;;;;;;;0.20;0.10;;;;;;;;;;5030033;28;20407;-82
2022/12/14 11:00:52;;;;;;;0.20;0.10;;;;;;;;;;5035722;28;20041;-82
2022/12/14 11:03:18;;;;;;;0.20;0.10;;;;;;;;;;5038108;28;20072;-82
2022/12/14 11:06:03;;;;;;;0.47;0.47;;;;;;;;;;5035036;28;20041;-82
2022/12/14 11:08:37;;;;;;;0.20;0.10;;;;;;;;;;5018136;28;20040;-81
2022/12/14 11:11:08;;;;;;;0.20;0.10;;;;;;;;;;5015956;28;20075;-81
2022/12/14 11:13:34;;;;;;;0.20;0.10;;;;;;;;;;5016153;28;20411;-81
2022/12/14 11:16:15;;;;;;;0.20;0.13;;;;;;;;;;5016923;28;20507;-81
2022/12/14 11:18:41;;;;;;;0.20;0.10;;;;;;;;;;5038927;28;20045;-80
2022/12/14 11:21:07;;;;;;;0.52;0.52;;;;;;;;;;5031604;28;20033;-80
2022/12/14 11:23:40;;;;;;;0.20;0.10;;;;;;;;;;5032533;28;20037;-81
2022/12/14 11:26:08;;;;;;;0.20;0.10;;;;;;;;;;5051302;28;20079;-80
2022/12/14 11:28:40;;;;;;;0.20;0.20;;;;;;;;;;5038029;28;20041;-81
2022/12/14 11:31:21;;;;;;;0.20;0.10;;;;;;;;;;5032684;28;20099;-80
2022/12/14 11:33:49;;;;;;;0.20;0.10;;;;;;;;;;5035860;28;20051;-81
2022/12/14 11:36:24;;;;;;;0.20;0.10;;;;;;;;;;5034709;28;20045;-81
2022/12/14 11:38:59;;;;;;;0.20;0.20;;;;;;;;;;5035882;28;20191;-81
2022/12/14 11:41:28;;;;;;;0.20;0.10;;;;;;;;;;5047250;28;20120;-81
2022/12/14 11:44:21;;;;;;;0.20;0.10;;;;;;;;;;5038160;28;20064;-81
2022/12/14 11:46:47;;;;;;;;;;;;;;;;;;5004614;28;20060;-80
2022/12/14 11:49:28;;;;;;;0.20;0.10;;;;;;;;;;5034893;28;19920;-80
2022/12/14 11:51:59;;;;;;;0.20;0.15;;;;;;;;;;5036646;28;20453;-80
2022/12/14 11:54:25;;;;;;;0.20;0.10;;;;;;;;;;5037898;28;20171;-81
2022/12/14 11:56:55;;;;;;;0.20;0.10;;;;;;;;;;5036760;28;20116;-80
2022/12/14 11:59:22;;;;;;;0.20;0.10;;;;;;;;;;5035385;28;20099;-80
2022/12/14 12:01:48;;;;;;;0.20;0.10;;;;;;;;;;5040414;28;20041;-80
2022/12/14 12:04:16;;;;;;;0.20;0.10;;;;;;;;;;5023995;28;20065;-79
2022/12/14 12:06:42;;;;;;;0.20;0.10;;;;;;;;;;5033700;28;20033;-80
2022/12/14 12:09:23;;;;;;;0.20;0.10;;;;;;;;;;5050279;28;20053;-79
2022/12/14 12:11:49;;;;;;;0.20;0.10;;;;;;;;;;5019767;28;20071;-81
2022/12/14 12:14:18;;;;;;;0.20;0.10;;;;;;;;;;5033657;28;20127;-80
2022/12/14 12:16:44;;;;;;;0.20;0.10;;;;;;;;;;5054546;28;20053;-81
2022/12/14 12:19:10;;;;;;;0.20;0.10;;;;;;;;;;5038977;28;20034;-80
2022/12/14 12:21:39;;;;;;;0.20;0.10;;;;;;;;;;5045691;28;20087;-79
2022/12/14 12:24:23;;;;;;;0.20;0.10;;;;;;;;;;5035526;28;20045;-80
2022/12/14 12:26:50;;;;;;;0.20;0.10;;;;;;;;;;5017523;28;20044;-80
2022/12/14 12:29:22;;;;;;;0.20;0.15;;;;;;;;;;5026326;28;20060;-79
2022/12/14 12:31:48;;;;;;;0.20;0.10;;;;;;;;;;5014326;28;20057;-79
2022/12/14 12:34:18;;;;;;;0.20;0.10;;;;;;;;;;5030433;28;20041;-82
2022/12/14 12:36:45;;;;;;;0.20;0.10;;;;;;;;;;5035733;28;20029;-79
2022/12/14 12:39:14;;;;;;;0.20;0.10;;;;;;;;;;5032337;28;20136;-80
2022/12/14 12:41:47;;;;;;;0.20;0.10;;;;;;;;;;5019172;28;20219;-80
2022/12/14 12:44:22;;;;;;;0.30;0.30;;;;;;;;;;5034384;28;20049;-78
2022/12/14 12:46:58;;;;;;;0.20;0.10;;;;;;;;;;5037691;28;20053;-80
2022/12/14 12:49:24;;;;;;;0.20;0.10;;;;;;;;;;5031759;28;20080;-80
2022/12/14 12:51:53;;;;;;;0.20;0.10;;;;;;;;;;5032445;28;20094;-80
2022/12/14 12:54:41;;;;;;;0.20;0.10;;;;;;;;;;5032424;28;20034;-80
2022/12/14 12:57:11;;;;;;;0.20;0.10;;;;;;;;;;5034438;28;20032;-80
2022/12/14 12:59:48;;;;;;;0.20;0.10;;;;;;;;;;5018931;28;20040;-80
2022/12/14 13:02:34;;;;;;;0.20;0.10;;;;;;;;;;5020233;28;20037;-79
2022/12/14 13:05:02;;;;;;;0.20;0.10;;;;;;;;;;5018740;28;20056;-80
2022/12/14 13:07:36;;;;;;;0.20;0.10;;;;;;;;;;5032271;28;20176;-80
2022/12/14 13:10:02;;;;;;;0.20;0.10;;;;;;;;;;5031488;28;20033;-80
2022/12/14 13:12:28;;;;;;;0.20;0.10;;;;;;;;;;5034622;28;20041;-80
2022/12/14 13:14:54;;;;;;;0.20;0.10;;;;;;;;;;5035722;28;20571;-80
2022/12/14 13:17:30;;;;;;;0.20;0.10;;;;;;;;;;5028477;28;20121;-80
2022/12/14 13:19:57;;;;;;;0.20;0.10;;;;;;;;;;5036694;28;20088;-79
2022/12/14 13:22:28;;;;;;;0.20;0.10;;;;;;;;;;5036903;28;20041;-80
2022/12/14 13:24:54;;;;;;;0.20;0.10;;;;;;;;;;5035727;28;20535;-80
2022/12/14 13:27:23;;;;;;;0.20;0.10;;;;;;;;;;5034522;28;20044;-80
2022/12/14 13:30:02;;;;;;;0.20;0.10;;;;;;;;;;5034530;28;20457;-80
2022/12/14 13:32:31;;;;;;;0.20;0.10;;;;;;;;;;5032077;28;20060;-80
2022/12/14 13:35:09;;;;;;;0.20;0.10;;;;;;;;;;5034394;28;20551;-80
2022/12/14 13:37:54;;;;;;;0.20;0.10;;;;;;;;;;5035913;28;20040;-80
2022/12/14 13:40:20;;;;;;;0.20;0.10;;;;;;;;;;5045823;28;20449;-79
2022/12/14 13:42:53;;;;;;;0.20;0.10;;;;;;;;;;5015062;28;20044;-80
2022/12/14 13:45:19;;;;;;;0.20;0.10;;;;;;;;;;5032299;28;20454;-80
2022/12/14 13:47:55;;;;;;;0.20;0.10;;;;;;;;;;5030607;28;20132;-80
2022/12/14 13:50:29;;;;;;;0.20;0.10;;;;;;;;;;5033396;28;20107;-79
2022/12/14 13:52:58;;;;;;;0.20;0.10;;;;;;;;;;5034005;28;20048;-80
2022/12/14 13:55:27;;;;;;;0.20;0.10;;;;;;;;;;5015381;28;20042;-80
2022/12/14 13:57:54;;;;;;;0.20;0.10;;;;;;;;;;5030529;28;20120;-80
2022/12/14 14:00:48;;;;;;;0.20;0.10;;;;;;;;;;5031122;28;20492;-78
2022/12/14 14:03:33;;;;;;;0.20;0.10;;;;;;;;;;5036060;28;20041;-80
2022/12/14 14:06:11;;;;;;;0.20;0.10;;;;;;;;;;5041206;28;20645;-80
2022/12/14 14:08:45;;;;;;;0.20;0.10;;;;;;;;;;5032830;28;20079;-81
2022/12/14 14:11:20;;;;;;;0.20;0.10;;;;;;;;;;5032739;28;20037;-80
2022/12/14 14:13:46;;;;;;;0.20;0.10;;;;;;;;;;5028190;28;20428;-81
2022/12/14 14:16:32;;;;;;;0.20;0.13;;;;;;;;;;5034643;28;20043;-81
2022/12/14 14:18:58;;;;;;;0.20;0.10;;;;;;;;;;5032019;28;20047;-80
2022/12/14 14:21:24;;;;;;;0.20;0.10;;;;;;;;;;5053355;28;20029;-80
2022/12/14 14:23:55;;;;;;;0.20;0.10;;;;;;;;;;5040771;28;20041;-80
2022/12/14 14:26:34;;;;;;;0.20;0.10;;;;;;;;;;5056301;28;20088;-81
2022/12/14 14:29:18;;;;;;;0.20;0.10;;;;;;;;;;5049332;28;20032;-80
2022/12/14 14:31:47;;;;;;;0.20;0.13;;;;;;;;;;5039035;28;20657;-80
2022/12/14 14:34:36;;;;;;;0.47;0.47;;;;;;;;;;5045303;28;20037;-81
2022/12/14 14:37:13;;;;;;;0.20;0.10;;;;;;;;;;5036733;28;20076;-81
2022/12/14 14:39:39;;;;;;;0.25;0.22;;;;;;;;;;5033067;28;20033;-81
2022/12/14 14:42:08;;;;;;;0.20;0.10;;;;;;;;;;5035028;28;20037;-81
2022/12/14 14:44:36;;;;;;;0.20;0.10;;;;;;;;;;5033522;28;20068;-81
2022/12/14 14:47:02;;;;;;;0.20;0.10;;;;;;;;;;5040874;28;20060;-81
2022/12/14 14:49:30;;;;;;;0.20;0.10;;;;;;;;;;5015065;28;20048;-81
2022/12/14 14:51:57;;;;;;;0.20;0.10;;;;;;;;;;5025408;28;20150;-80
2022/12/14 14:54:27;;;;;;;0.20;0.10;;;;;;;;;;5029031;28;20045;-81
2022/12/14 14:56:53;;;;;;;0.20;0.10;;;;;;;;;;5032201;28;20404;-81
2022/12/14 14:59:19;;;;;;;0.20;0.10;;;;;;;;;;5037513;28;20048;-82
2022/12/14 15:01:50;;;;;;;0.20;0.10;;;;;;;;;;5043109;28;20403;-82
2022/12/14 15:04:19;;;;;;;0.20;0.10;;;;;;;;;;5036132;28;20041;-82
2022/12/14 15:06:47;;;;;;;0.20;0.10;;;;;;;;;;5033329;28;20041;-81
2022/12/14 15:09:20;;;;;;;0.20;0.10;;;;;;;;;;5033536;28;20040;-82